sensor_id;sensor_type;location;lat;lon;timestamp;pressure;altitude;pressure_sealevel;temperature;humidity
39823;BME280;25499;53.958;10.970;2024-03-23T13:02:21;99217.75;;;18.85;43.29
39823;BME280;25499;53.958;10.970;2024-03-23T13:04:49;99069.28;;;17.39;43.05
39823;BME280;25499;53.958;10.970;2024-03-23T13:07:15;99148.13;;;18.16;43.09
39823;BME280;25499;53.958;10.970;2024-03-23T13:09:42;99269.16;;;19.90;42.34
39823;BME280;25499;53.958;10.970;2024-03-23T13:12:08;98982.50;;;17.53;41.66
39823;BME280;25499;53.958;10.970;2024-03-23T13:14:35;99002.66;;;15.47;44.86
39823;BME280;25499;53.958;10.970;2024-03-23T13:17:01;99050.78;;;13.80;48.52
39823;BME280;25499;53.958;10.970;2024-03-23T13:19:30;99155.94;;;13.46;50.59
39823;BME280;25499;53.958;10.970;2024-03-23T13:21:57;99260.47;;;13.23;52.37
39823;BME280;25499;53.958;10.970;2024-03-23T13:24:24;99313.31;;;13.08;53.35
39823;BME280;25499;53.958;10.970;2024-03-23T13:26:50;99275.63;;;11.88;54.37
39823;BME280;25499;53.958;10.970;2024-03-23T13:29:18;99311.56;;;11.22;55.38
39823;BME280;25499;53.958;10.970;2024-03-23T13:31:44;99454.63;;;12.20;55.66
39823;BME280;25499;53.958;10.970;2024-03-23T13:34:11;99491.41;;;12.96;55.40
39823;BME280;25499;53.958;10.970;2024-03-23T13:36:39;99439.34;;;11.80;55.70
39823;BME280;25499;53.958;10.970;2024-03-23T13:39:07;99480.91;;;11.20;57.12
39823;BME280;25499;53.958;10.970;2024-03-23T13:41:37;99515.97;;;10.35;59.24
39823;BME280;25499;53.958;10.970;2024-03-23T13:44:04;99515.13;;;8.99;60.51
39823;BME280;25499;53.958;10.970;2024-03-23T13:46:30;99684.38;;;9.22;64.49
39823;BME280;25499;53.958;10.970;2024-03-23T13:48:58;99780.16;;;9.45;67.09
39823;BME280;25499;53.958;10.970;2024-03-23T13:51:25;99874.25;;;10.25;69.07
39823;BME280;25499;53.958;10.970;2024-03-23T13:53:55;99884.91;;;10.64;69.53
39823;BME280;25499;53.958;10.970;2024-03-23T13:56:23;99899.59;;;10.68;70.42
39823;BME280;25499;53.958;10.970;2024-03-23T13:58:49;99826.41;;;9.81;69.61
39823;BME280;25499;53.958;10.970;2024-03-23T14:01:16;99858.50;;;9.78;70.15
39823;BME280;25499;53.958;10.970;2024-03-23T14:03:43;99876.75;;;9.74;70.98
39823;BME280;25499;53.958;10.970;2024-03-23T14:06:09;99937.66;;;10.19;72.30
39823;BME280;25499;53.958;10.970;2024-03-23T14:08:37;99907.16;;;10.32;71.84
39823;BME280;25499;53.958;10.970;2024-03-23T14:11:06;99897.63;;;10.26;71.49
39823;BME280;25499;53.958;10.970;2024-03-23T14:13:33;99897.91;;;10.64;71.42
39823;BME280;25499;53.958;10.970;2024-03-23T14:16:00;99867.88;;;10.46;70.50
39823;BME280;25499;53.958;10.970;2024-03-23T14:18:27;99861.13;;;10.36;70.26
39823;BME280;25499;53.958;10.970;2024-03-23T14:20:56;99889.91;;;10.76;70.47
39823;BME280;25499;53.958;10.970;2024-03-23T14:23:24;99855.94;;;10.82;69.33
39823;BME280;25499;53.958;10.970;2024-03-23T14:25:53;99811.91;;;10.70;68.20
39823;BME280;25499;53.958;10.970;2024-03-23T14:28:21;99787.00;;;10.57;67.46
39823;BME280;25499;53.958;10.970;2024-03-23T14:30:48;99729.72;;;10.12;66.67
39823;BME280;25499;53.958;10.970;2024-03-23T14:33:15;99722.97;;;10.00;66.30
39823;BME280;25499;53.958;10.970;2024-03-23T14:35:41;99693.47;;;9.49;66.57
39823;BME280;25499;53.958;10.970;2024-03-23T14:41:40;99695.50;;;9.30;66.21
39823;BME280;25499;53.958;10.970;2024-03-23T14:44:08;99713.25;;;8.99;67.00
39823;BME280;25499;53.958;10.970;2024-03-23T14:46:53;99752.91;;;9.12;67.97
39823;BME280;25499;53.958;10.970;2024-03-23T14:49:21;99771.13;;;9.07;68.71
39823;BME280;25499;53.958;10.970;2024-03-23T14:51:46;99777.34;;;9.61;67.90
39823;BME280;25499;53.958;10.970;2024-03-23T14:54:13;99789.34;;;10.21;66.95
39823;BME280;25499;53.958;10.970;2024-03-23T14:56:39;99761.56;;;10.73;65.42
39823;BME280;25499;53.958;10.970;2024-03-23T14:59:06;99706.53;;;11.29;63.37
39823;BME280;25499;53.958;10.970;2024-03-23T15:01:34;99667.19;;;11.74;61.79
39823;BME280;25499;53.958;10.970;2024-03-23T15:04:00;99609.59;;;12.16;59.26
39823;BME280;25499;53.958;10.970;2024-03-23T15:06:26;99617.41;;;12.76;58.61
39823;BME280;25499;53.958;10.970;2024-03-23T15:08:54;99568.28;;;13.42;56.13
39823;BME280;25499;53.958;10.970;2024-03-23T15:11:20;99466.91;;;12.73;55.21
39823;BME280;25499;53.958;10.970;2024-03-23T15:13:49;99391.06;;;11.35;56.34
39823;BME280;25499;53.958;10.970;2024-03-23T15:16:17;99443.34;;;10.96;57.55
39823;BME280;25499;53.958;10.970;2024-03-23T15:18:46;99429.34;;;10.30;58.49
39823;BME280;25499;53.958;10.970;2024-03-23T15:21:12;99476.44;;;10.17;60.44
39823;BME280;25499;53.958;10.970;2024-03-23T15:23:45;99500.72;;;9.76;61.50
39823;BME280;25499;53.958;10.970;2024-03-23T15:26:10;99559.22;;;9.50;63.06
39823;BME280;25499;53.958;10.970;2024-03-23T15:28:37;99606.78;;;9.55;64.10
39823;BME280;25499;53.958;10.970;2024-03-23T15:31:03;99742.06;;;10.91;65.05
39823;BME280;25499;53.958;10.970;2024-03-23T15:33:30;99813.06;;;13.46;62.76
39823;BME280;25499;53.958;10.970;2024-03-23T15:39:19;99553.53;;;14.37;56.12
39823;BME280;25499;53.958;10.970;2024-03-23T15:41:47;99422.69;;;12.40;56.48
39823;BME280;25499;53.958;10.970;2024-03-23T15:44:13;99429.34;;;11.01;58.45
39823;BME280;25499;53.958;10.970;2024-03-23T15:46:40;99522.66;;;10.82;60.65
39823;BME280;25499;53.958;10.970;2024-03-23T15:49:28;99554.53;;;10.14;62.51
39823;BME280;25499;53.958;10.970;2024-03-23T15:51:58;99543.66;;;9.48;63.41
39823;BME280;25499;53.958;10.970;2024-03-23T15:54:26;99607.91;;;9.40;64.81
39823;BME280;25499;53.958;10.970;2024-03-23T15:56:53;99616.16;;;9.11;65.46
39823;BME280;25499;53.958;10.970;2024-03-23T15:59:19;99643.50;;;8.77;66.56
39823;BME280;25499;53.958;10.970;2024-03-23T16:01:47;99682.34;;;8.82;66.94
39823;BME280;25499;53.958;10.970;2024-03-23T16:04:13;99704.91;;;8.77;67.71
39823;BME280;25499;53.958;10.970;2024-03-23T16:06:39;99712.78;;;8.71;67.81
39823;BME280;25499;53.958;10.970;2024-03-23T16:09:07;99732.72;;;8.66;68.28
39823;BME280;25499;53.958;10.970;2024-03-23T16:11:36;99739.03;;;8.43;68.56
39823;BME280;25499;53.958;10.970;2024-03-23T16:14:02;99745.16;;;8.30;69.04
39823;BME280;25499;53.958;10.970;2024-03-23T16:16:28;99747.03;;;8.18;68.86
39823;BME280;25499;53.958;10.970;2024-03-23T16:18:54;99766.88;;;8.22;69.52
39823;BME280;25499;53.958;10.970;2024-03-23T16:21:21;99760.03;;;8.12;69.40
39823;BME280;25499;53.958;10.970;2024-03-23T16:23:47;99778.09;;;8.23;69.69
39823;BME280;25499;53.958;10.970;2024-03-23T16:26:13;99781.69;;;8.11;69.92
39823;BME280;25499;53.958;10.970;2024-03-23T16:28:43;99793.78;;;8.08;70.34
39823;BME280;25499;53.958;10.970;2024-03-23T16:31:11;99806.81;;;8.03;70.27
39823;BME280;25499;53.958;10.970;2024-03-23T16:33:38;99813.81;;;7.87;70.70
39823;BME280;25499;53.958;10.970;2024-03-23T16:36:05;99808.63;;;7.90;70.18
39823;BME280;25499;53.958;10.970;2024-03-23T16:38:33;99851.75;;;7.99;70.97
39823;BME280;25499;53.958;10.970;2024-03-23T16:41:01;99919.50;;;7.17;74.46
39823;BME280;25499;53.958;10.970;2024-03-23T16:43:27;99954.94;;;6.84;76.31
39823;BME280;25499;53.958;10.970;2024-03-23T16:45:59;99984.25;;;6.54;78.73
39823;BME280;25499;53.958;10.970;2024-03-23T16:48:26;100032.44;;;6.24;81.21
39823;BME280;25499;53.958;10.970;2024-03-23T16:50:56;100066.00;;;6.10;83.21
39823;BME280;25499;53.958;10.970;2024-03-23T16:53:22;100088.41;;;6.19;84.83
39823;BME280;25499;53.958;10.970;2024-03-23T16:55:54;100086.72;;;6.23;86.21
39823;BME280;25499;53.958;10.970;2024-03-23T16:58:21;100085.06;;;6.40;87.20
39823;BME280;25499;53.958;10.970;2024-03-23T17:00:47;100074.75;;;6.51;87.73
39823;BME280;25499;53.958;10.970;2024-03-23T17:03:15;100070.41;;;6.51;88.47
39823;BME280;25499;53.958;10.970;2024-03-23T17:05:42;100071.34;;;6.66;89.57
39823;BME280;25499;53.958;10.970;2024-03-23T17:08:08;100064.44;;;6.72;90.16
39823;BME280;25499;53.958;10.970;2024-03-23T17:10:35;100060.97;;;6.58;91.09
39823;BME280;25499;53.958;10.970;2024-03-23T17:13:01;100072.19;;;6.56;92.43
39823;BME280;25499;53.958;10.970;2024-03-23T17:15:28;100074.75;;;6.49;93.63
39823;BME280;25499;53.958;10.970;2024-03-23T17:17:54;100080.72;;;6.38;94.71
39823;BME280;25499;53.958;10.970;2024-03-23T17:20:22;100077.28;;;6.32;95.73
39823;BME280;25499;53.958;10.970;2024-03-23T17:22:53;100085.88;;;6.34;96.55
39823;BME280;25499;53.958;10.970;2024-03-23T17:25:20;100065.16;;;6.21;96.73
39823;BME280;25499;53.958;10.970;2024-03-23T17:27:46;100052.25;;;6.14;96.50
39823;BME280;25499;53.958;10.970;2024-03-23T17:30:13;100055.69;;;6.13;96.40
39823;BME280;25499;53.958;10.970;2024-03-23T17:32:41;100059.13;;;6.17;96.48
39823;BME280;25499;53.958;10.970;2024-03-23T17:35:09;100047.00;;;5.96;96.42
39823;BME280;25499;53.958;10.970;2024-03-23T17:37:37;100039.22;;;5.94;96.51
39823;BME280;25499;53.958;10.970;2024-03-23T17:40:05;100044.34;;;5.88;96.48
39823;BME280;25499;53.958;10.970;2024-03-23T17:42:33;100034.00;;;5.85;96.35
39823;BME280;25499;53.958;10.970;2024-03-23T17:45:00;100029.66;;;5.78;96.31
39823;BME280;25499;53.958;10.970;2024-03-23T17:47:26;100033.09;;;5.77;96.53
39823;BME280;25499;53.958;10.970;2024-03-23T17:49:53;100049.41;;;5.67;96.90
39823;BME280;25499;53.958;10.970;2024-03-23T17:52:19;100058.84;;;5.61;97.18
39823;BME280;25499;53.958;10.970;2024-03-23T17:54:47;100056.19;;;5.51;97.45
39823;BME280;25499;53.958;10.970;2024-03-23T17:57:14;100056.19;;;5.48;97.73
39823;BME280;25499;53.958;10.970;2024-03-23T17:59:41;100062.19;;;5.44;98.46
39823;BME280;25499;53.958;10.970;2024-03-23T18:02:06;100064.78;;;5.45;98.54
39823;BME280;25499;53.958;10.970;2024-03-23T18:04:34;100061.31;;;5.40;98.88
39823;BME280;25499;53.958;10.970;2024-03-23T18:06:59;100051.78;;;5.34;98.98
39823;BME280;25499;53.958;10.970;2024-03-23T18:09:26;100050.03;;;5.27;99.03
39823;BME280;25499;53.958;10.970;2024-03-23T18:11:53;100055.16;;;5.26;99.23
39823;BME280;25499;53.958;10.970;2024-03-23T18:14:20;100050.88;;;5.23;99.57
39823;BME280;25499;53.958;10.970;2024-03-23T18:16:48;100045.69;;;5.21;99.59
39823;BME280;25499;53.958;10.970;2024-03-23T18:19:15;100045.72;;;5.28;99.78
39823;BME280;25499;53.958;10.970;2024-03-23T18:21:41;100045.72;;;5.23;99.78
39823;BME280;25499;53.958;10.970;2024-03-23T18:24:07;100044.81;;;5.21;100.00
39823;BME280;25499;53.958;10.970;2024-03-23T18:26:33;100041.31;;;5.10;100.00
39823;BME280;25499;53.958;10.970;2024-03-23T18:29:02;100045.59;;;5.06;100.00
39823;BME280;25499;53.958;10.970;2024-03-23T18:31:28;100043.91;;;5.11;100.00
39823;BME280;25499;53.958;10.970;2024-03-23T18:33:55;100039.50;;;5.04;100.00
39823;BME280;25499;53.958;10.970;2024-03-23T18:36:22;100038.66;;;5.03;100.00
39823;BME280;25499;53.958;10.970;2024-03-23T18:38:49;100043.81;;;5.02;100.00
39823;BME280;25499;53.958;10.970;2024-03-23T18:41:15;100033.47;;;4.96;100.00
39823;BME280;25499;53.958;10.970;2024-03-23T18:43:45;100044.63;;;4.95;100.00
39823;BME280;25499;53.958;10.970;2024-03-23T18:46:13;100044.59;;;4.93;100.00
39823;BME280;25499;53.958;10.970;2024-03-23T18:48:40;100039.44;;;4.92;100.00
39823;BME280;25499;53.958;10.970;2024-03-23T18:51:05;100044.63;;;4.95;100.00
39823;BME280;25499;53.958;10.970;2024-03-23T18:53:32;100038.50;;;4.83;100.00
39823;BME280;25499;53.958;10.970;2024-03-23T18:55:58;100033.28;;;4.74;100.00
39823;BME280;25499;53.958;10.970;2024-03-23T18:58:26;100037.50;;;4.67;100.00
39823;BME280;25499;53.958;10.970;2024-03-23T19:00:55;100047.00;;;4.73;100.00
39823;BME280;25499;53.958;10.970;2024-03-23T19:03:23;100041.75;;;4.61;100.00
39823;BME280;25499;53.958;10.970;2024-03-23T19:05:53;100045.16;;;4.60;100.00
39823;BME280;25499;53.958;10.970;2024-03-23T19:08:20;100053.75;;;4.59;100.00
39823;BME280;25499;53.958;10.970;2024-03-23T19:10:52;100063.19;;;4.60;100.00
39823;BME280;25499;53.958;10.970;2024-03-23T19:13:19;100052.75;;;4.46;100.00
39823;BME280;25499;53.958;10.970;2024-03-23T19:15:45;100051.03;;;4.43;100.00
39823;BME280;25499;53.958;10.970;2024-03-23T19:18:12;100052.72;;;4.43;100.00
39823;BME280;25499;53.958;10.970;2024-03-23T19:20:39;100058.78;;;4.46;100.00
39823;BME280;25499;53.958;10.970;2024-03-23T19:23:06;100054.50;;;4.47;100.00
39823;BME280;25499;53.958;10.970;2024-03-23T19:25:32;100058.81;;;4.49;100.00
39823;BME280;25499;53.958;10.970;2024-03-23T19:28:00;100065.69;;;4.51;100.00
39823;BME280;25499;53.958;10.970;2024-03-23T19:30:27;100056.19;;;4.43;100.00
39823;BME280;25499;53.958;10.970;2024-03-23T19:32:55;100042.41;;;4.41;100.00
39823;BME280;25499;53.958;10.970;2024-03-23T19:35:22;100055.38;;;4.51;100.00
39823;BME280;25499;53.958;10.970;2024-03-23T19:37:50;100045.84;;;4.40;100.00
39823;BME280;25499;53.958;10.970;2024-03-23T19:40:16;100049.19;;;4.32;100.00
39823;BME280;25499;53.958;10.970;2024-03-23T19:42:43;100051.78;;;4.33;100.00
39823;BME280;25499;53.958;10.970;2024-03-23T19:45:09;100057.69;;;4.24;100.00
39823;BME280;25499;53.958;10.970;2024-03-23T19:47:38;100059.38;;;4.24;100.00
39823;BME280;25499;53.958;10.970;2024-03-23T19:50:04;100062.88;;;4.29;100.00
39823;BME280;25499;53.958;10.970;2024-03-23T19:52:33;100080.25;;;4.45;100.00
39823;BME280;25499;53.958;10.970;2024-03-23T19:55:01;100078.53;;;4.46;100.00
39823;BME280;25499;53.958;10.970;2024-03-23T19:57:27;100063.88;;;4.40;100.00
39823;BME280;25499;53.958;10.970;2024-03-23T19:59:53;100063.03;;;4.43;100.00
39823;BME280;25499;53.958;10.970;2024-03-23T20:02:20;100063.03;;;4.41;100.00
39823;BME280;25499;53.958;10.970;2024-03-23T20:04:46;100053.47;;;4.29;100.00
39823;BME280;25499;53.958;10.970;2024-03-23T20:07:13;100057.75;;;4.30;100.00
39823;BME280;25499;53.958;10.970;2024-03-23T20:09:38;100056.69;;;4.13;100.00
39823;BME280;25499;53.958;10.970;2024-03-23T20:12:07;100059.91;;;3.95;100.00
39823;BME280;25499;53.958;10.970;2024-03-23T20:14:33;100055.66;;;3.96;100.00
39823;BME280;25499;53.958;10.970;2024-03-23T20:17:00;100054.81;;;3.98;100.00
39823;BME280;25499;53.958;10.970;2024-03-23T20:19:26;100051.31;;;3.93;100.00
39823;BME280;25499;53.958;10.970;2024-03-23T20:21:53;100049.44;;;3.81;100.00
39823;BME280;25499;53.958;10.970;2024-03-23T20:24:18;100051.94;;;3.73;100.00
39823;BME280;25499;53.958;10.970;2024-03-23T20:26:45;100059.81;;;3.86;100.00
39823;BME280;25499;53.958;10.970;2024-03-23T20:29:13;100053.78;;;3.87;100.00
39823;BME280;25499;53.958;10.970;2024-03-23T20:31:39;100062.56;;;4.00;100.00
39823;BME280;25499;53.958;10.970;2024-03-23T20:34:05;100051.34;;;3.96;100.00
39823;BME280;25499;53.958;10.970;2024-03-23T20:36:32;100041.94;;;3.98;100.00
39823;BME280;25499;53.958;10.970;2024-03-23T20:38:58;100044.44;;;3.93;100.00
39823;BME280;25499;53.958;10.970;2024-03-23T20:41:25;100043.66;;;3.98;100.00
39823;BME280;25499;53.958;10.970;2024-03-23T20:43:50;100040.22;;;3.99;100.00
39823;BME280;25499;53.958;10.970;2024-03-23T20:46:18;100029.91;;;3.97;100.00
39823;BME280;25499;53.958;10.970;2024-03-23T20:48:44;100031.66;;;4.00;100.00
39823;BME280;25499;53.958;10.970;2024-03-23T20:51:15;100027.25;;;3.91;100.00
39823;BME280;25499;53.958;10.970;2024-03-23T20:53:41;100022.94;;;3.90;100.00
39823;BME280;25499;53.958;10.970;2024-03-23T20:56:07;100032.34;;;3.86;100.00
39823;BME280;25499;53.958;10.970;2024-03-23T20:58:34;100026.22;;;3.78;100.00
39823;BME280;25499;53.958;10.970;2024-03-23T21:01:03;100014.25;;;3.79;100.00
39823;BME280;25499;53.958;10.970;2024-03-23T21:03:31;100020.31;;;3.84;100.00
39823;BME280;25499;53.958;10.970;2024-03-23T21:05:58;100017.66;;;3.79;100.00
39823;BME280;25499;53.958;10.970;2024-03-23T21:08:24;100014.25;;;3.79;100.00
39823;BME280;25499;53.958;10.970;2024-03-23T21:10:52;100011.72;;;3.85;100.00
39823;BME280;25499;53.958;10.970;2024-03-23T21:13:19;100008.34;;;3.89;100.00
